sensor_id;sensor_type;location;lat;lon;timestamp;P1;durP1;ratioP1;P2;durP2;ratioP2
20709;SDS011;10516;51.518;9.864;2022-12-07T00:01:06;30.58;;;18.30;;
20709;SDS011;10516;51.518;9.864;2022-12-07T00:03:35;27.15;;;16.05;;
20709;SDS011;10516;51.518;9.864;2022-12-07T00:06:02;28.73;;;16.67;;
20709;SDS011;10516;51.518;9.864;2022-12-07T00:08:30;28.92;;;17.75;;
20709;SDS011;10516;51.518;9.864;2022-12-07T00:11:00;39.80;;;19.40;;
20709;SDS011;10516;51.518;9.864;2022-12-07T00:13:27;32.30;;;19.25;;
20709;SDS011;10516;51.518;9.864;2022-12-07T00:15:52;33.55;;;18.45;;
20709;SDS011;10516;51.518;9.864;2022-12-07T00:18:17;32.60;;;18.30;;
20709;SDS011;10516;51.518;9.864;2022-12-07T00:20:43;32.22;;;18.80;;
20709;SDS011;10516;51.518;9.864;2022-12-07T00:23:08;36.58;;;18.08;;
20709;SDS011;10516;51.518;9.864;2022-12-07T00:25:33;30.40;;;16.98;;
20709;SDS011;10516;51.518;9.864;2022-12-07T00:27:59;36.22;;;19.08;;
20709;SDS011;10516;51.518;9.864;2022-12-07T00:30:24;30.42;;;17.75;;
20709;SDS011;10516;51.518;9.864;2022-12-07T00:32:49;28.55;;;17.13;;
20709;SDS011;10516;51.518;9.864;2022-12-07T00:35:15;29.60;;;16.85;;
20709;SDS011;10516;51.518;9.864;2022-12-07T00:37:40;33.10;;;17.73;;
20709;SDS011;10516;51.518;9.864;2022-12-07T00:40:06;25.88;;;16.23;;
20709;SDS011;10516;51.518;9.864;2022-12-07T00:42:32;27.65;;;15.90;;
20709;SDS011;10516;51.518;9.864;2022-12-07T00:44:58;27.77;;;15.93;;
20709;SDS011;10516;51.518;9.864;2022-12-07T00:47:23;24.67;;;14.90;;
20709;SDS011;10516;51.518;9.864;2022-12-07T00:49:48;23.17;;;14.57;;
20709;SDS011;10516;51.518;9.864;2022-12-07T00:52:14;24.77;;;14.40;;
20709;SDS011;10516;51.518;9.864;2022-12-07T00:54:39;21.02;;;14.13;;
20709;SDS011;10516;51.518;9.864;2022-12-07T00:57:05;26.98;;;14.93;;
20709;SDS011;10516;51.518;9.864;2022-12-07T00:59:30;23.40;;;12.98;;
20709;SDS011;10516;51.518;9.864;2022-12-07T01:01:56;23.77;;;14.35;;
20709;SDS011;10516;51.518;9.864;2022-12-07T01:04:21;22.73;;;14.60;;
20709;SDS011;10516;51.518;9.864;2022-12-07T01:06:46;22.52;;;12.98;;
20709;SDS011;10516;51.518;9.864;2022-12-07T01:09:12;21.02;;;14.50;;
20709;SDS011;10516;51.518;9.864;2022-12-07T01:11:37;20.33;;;12.77;;
20709;SDS011;10516;51.518;9.864;2022-12-07T01:14:02;21.63;;;13.45;;
20709;SDS011;10516;51.518;9.864;2022-12-07T01:16:28;18.73;;;12.82;;
20709;SDS011;10516;51.518;9.864;2022-12-07T01:18:56;21.30;;;13.07;;
20709;SDS011;10516;51.518;9.864;2022-12-07T01:21:23;21.52;;;13.35;;
20709;SDS011;10516;51.518;9.864;2022-12-07T01:23:50;22.63;;;14.80;;
20709;SDS011;10516;51.518;9.864;2022-12-07T01:26:17;22.65;;;13.63;;
20709;SDS011;10516;51.518;9.864;2022-12-07T01:28:45;20.58;;;14.20;;
20709;SDS011;10516;51.518;9.864;2022-12-07T01:31:15;22.73;;;14.13;;
20709;SDS011;10516;51.518;9.864;2022-12-07T01:33:43;18.70;;;12.65;;
20709;SDS011;10516;51.518;9.864;2022-12-07T01:36:14;19.92;;;13.35;;
20709;SDS011;10516;51.518;9.864;2022-12-07T01:38:45;21.83;;;13.93;;
20709;SDS011;10516;51.518;9.864;2022-12-07T01:41:12;24.52;;;14.32;;
20709;SDS011;10516;51.518;9.864;2022-12-07T01:44:07;21.50;;;13.90;;
20709;SDS011;10516;51.518;9.864;2022-12-07T01:46:32;22.10;;;14.02;;
20709;SDS011;10516;51.518;9.864;2022-12-07T01:48:57;16.77;;;11.77;;
20709;SDS011;10516;51.518;9.864;2022-12-07T01:51:24;17.52;;;12.13;;
20709;SDS011;10516;51.518;9.864;2022-12-07T01:53:51;19.30;;;13.65;;
20709;SDS011;10516;51.518;9.864;2022-12-07T01:56:17;19.42;;;12.80;;
20709;SDS011;10516;51.518;9.864;2022-12-07T01:58:47;20.85;;;13.05;;
20709;SDS011;10516;51.518;9.864;2022-12-07T02:01:14;19.27;;;12.63;;
20709;SDS011;10516;51.518;9.864;2022-12-07T02:03:40;19.63;;;12.20;;
20709;SDS011;10516;51.518;9.864;2022-12-07T02:06:07;17.75;;;11.57;;
20709;SDS011;10516;51.518;9.864;2022-12-07T02:08:35;17.85;;;11.15;;
20709;SDS011;10516;51.518;9.864;2022-12-07T02:11:01;18.73;;;12.18;;
20709;SDS011;10516;51.518;9.864;2022-12-07T02:13:29;17.40;;;11.43;;
20709;SDS011;10516;51.518;9.864;2022-12-07T02:18:47;20.92;;;11.07;;
20709;SDS011;10516;51.518;9.864;2022-12-07T02:26:37;16.85;;;10.90;;
20709;SDS011;10516;51.518;9.864;2022-12-07T02:35:27;17.00;;;11.18;;
20709;SDS011;10516;51.518;9.864;2022-12-07T02:41:00;20.98;;;12.23;;
20709;SDS011;10516;51.518;9.864;2022-12-07T02:43:09;20.33;;;13.32;;
20709;SDS011;10516;51.518;9.864;2022-12-07T02:45:41;21.30;;;14.20;;
20709;SDS011;10516;51.518;9.864;2022-12-07T02:48:09;20.90;;;13.48;;
20709;SDS011;10516;51.518;9.864;2022-12-07T02:50:38;23.70;;;14.75;;
20709;SDS011;10516;51.518;9.864;2022-12-07T02:53:04;19.40;;;12.77;;
20709;SDS011;10516;51.518;9.864;2022-12-07T02:55:31;20.05;;;13.27;;
20709;SDS011;10516;51.518;9.864;2022-12-07T02:58:05;26.33;;;15.85;;
20709;SDS011;10516;51.518;9.864;2022-12-07T03:00:45;22.83;;;13.73;;
20709;SDS011;10516;51.518;9.864;2022-12-07T03:03:19;20.02;;;13.38;;
20709;SDS011;10516;51.518;9.864;2022-12-07T03:06:06;26.30;;;14.63;;
20709;SDS011;10516;51.518;9.864;2022-12-07T03:08:44;25.65;;;15.13;;
20709;SDS011;10516;51.518;9.864;2022-12-07T03:11:20;32.25;;;16.10;;
20709;SDS011;10516;51.518;9.864;2022-12-07T03:14:13;28.42;;;15.85;;
20709;SDS011;10516;51.518;9.864;2022-12-07T03:16:57;24.42;;;14.65;;
20709;SDS011;10516;51.518;9.864;2022-12-07T03:19:28;26.23;;;16.05;;
20709;SDS011;10516;51.518;9.864;2022-12-07T03:22:00;28.95;;;16.77;;
20709;SDS011;10516;51.518;9.864;2022-12-07T03:24:33;24.65;;;15.50;;
20709;SDS011;10516;51.518;9.864;2022-12-07T03:27:14;32.28;;;17.40;;
20709;SDS011;10516;51.518;9.864;2022-12-07T03:29:47;30.98;;;17.70;;
20709;SDS011;10516;51.518;9.864;2022-12-07T03:32:26;29.08;;;17.05;;
20709;SDS011;10516;51.518;9.864;2022-12-07T03:35:06;37.67;;;18.92;;
20709;SDS011;10516;51.518;9.864;2022-12-07T03:43:00;24.55;;;16.50;;
20709;SDS011;10516;51.518;9.864;2022-12-07T03:45:51;28.65;;;16.15;;
20709;SDS011;10516;51.518;9.864;2022-12-07T03:48:35;28.40;;;16.15;;
20709;SDS011;10516;51.518;9.864;2022-12-07T03:56:59;28.05;;;16.98;;
20709;SDS011;10516;51.518;9.864;2022-12-07T03:59:26;28.00;;;17.02;;
20709;SDS011;10516;51.518;9.864;2022-12-07T04:01:54;27.70;;;16.13;;
20709;SDS011;10516;51.518;9.864;2022-12-07T04:04:22;27.17;;;16.20;;
20709;SDS011;10516;51.518;9.864;2022-12-07T04:06:49;28.73;;;17.05;;
20709;SDS011;10516;51.518;9.864;2022-12-07T04:09:15;34.95;;;18.15;;
20709;SDS011;10516;51.518;9.864;2022-12-07T04:11:41;37.45;;;21.27;;
20709;SDS011;10516;51.518;9.864;2022-12-07T04:14:07;31.35;;;17.10;;
20709;SDS011;10516;51.518;9.864;2022-12-07T04:16:48;36.50;;;19.23;;
20709;SDS011;10516;51.518;9.864;2022-12-07T04:19:19;40.03;;;21.08;;
20709;SDS011;10516;51.518;9.864;2022-12-07T04:21:46;32.33;;;17.88;;
20709;SDS011;10516;51.518;9.864;2022-12-07T04:24:12;38.85;;;23.42;;
20709;SDS011;10516;51.518;9.864;2022-12-07T04:26:40;33.60;;;18.55;;
20709;SDS011;10516;51.518;9.864;2022-12-07T04:29:06;31.75;;;18.80;;
20709;SDS011;10516;51.518;9.864;2022-12-07T04:31:31;38.08;;;19.42;;
20709;SDS011;10516;51.518;9.864;2022-12-07T04:33:57;36.22;;;17.90;;
20709;SDS011;10516;51.518;9.864;2022-12-07T04:36:22;31.95;;;18.77;;
20709;SDS011;10516;51.518;9.864;2022-12-07T04:38:48;40.17;;;20.88;;
20709;SDS011;10516;51.518;9.864;2022-12-07T04:41:13;47.33;;;22.02;;
20709;SDS011;10516;51.518;9.864;2022-12-07T04:43:39;33.95;;;18.88;;
20709;SDS011;10516;51.518;9.864;2022-12-07T04:46:04;36.17;;;20.92;;
20709;SDS011;10516;51.518;9.864;2022-12-07T04:48:30;42.58;;;20.13;;
20709;SDS011;10516;51.518;9.864;2022-12-07T04:50:55;40.58;;;20.90;;
20709;SDS011;10516;51.518;9.864;2022-12-07T04:53:21;36.95;;;19.65;;
20709;SDS011;10516;51.518;9.864;2022-12-07T04:55:46;37.45;;;19.80;;
20709;SDS011;10516;51.518;9.864;2022-12-07T04:58:12;44.72;;;22.50;;
20709;SDS011;10516;51.518;9.864;2022-12-07T05:00:38;40.85;;;21.58;;
20709;SDS011;10516;51.518;9.864;2022-12-07T05:03:04;44.80;;;21.85;;
20709;SDS011;10516;51.518;9.864;2022-12-07T05:05:30;41.15;;;21.45;;
20709;SDS011;10516;51.518;9.864;2022-12-07T05:07:56;41.50;;;20.60;;
20709;SDS011;10516;51.518;9.864;2022-12-07T05:10:22;39.67;;;22.77;;
20709;SDS011;10516;51.518;9.864;2022-12-07T05:12:47;42.42;;;21.92;;
20709;SDS011;10516;51.518;9.864;2022-12-07T05:15:13;41.25;;;22.63;;
20709;SDS011;10516;51.518;9.864;2022-12-07T05:17:40;41.30;;;21.77;;
20709;SDS011;10516;51.518;9.864;2022-12-07T05:20:06;45.83;;;24.05;;
20709;SDS011;10516;51.518;9.864;2022-12-07T05:22:33;45.30;;;20.90;;
20709;SDS011;10516;51.518;9.864;2022-12-07T05:24:58;40.13;;;21.35;;
20709;SDS011;10516;51.518;9.864;2022-12-07T05:27:24;36.95;;;20.52;;
20709;SDS011;10516;51.518;9.864;2022-12-07T05:29:49;35.80;;;21.20;;
20709;SDS011;10516;51.518;9.864;2022-12-07T05:32:16;36.60;;;19.20;;
20709;SDS011;10516;51.518;9.864;2022-12-07T05:34:41;35.40;;;20.48;;
20709;SDS011;10516;51.518;9.864;2022-12-07T05:37:07;33.95;;;19.92;;
20709;SDS011;10516;51.518;9.864;2022-12-07T05:39:32;39.47;;;21.40;;
20709;SDS011;10516;51.518;9.864;2022-12-07T05:41:57;35.40;;;20.10;;
20709;SDS011;10516;51.518;9.864;2022-12-07T05:44:38;38.22;;;18.67;;
20709;SDS011;10516;51.518;9.864;2022-12-07T05:47:05;33.50;;;17.40;;
20709;SDS011;10516;51.518;9.864;2022-12-07T05:49:31;33.20;;;19.73;;
20709;SDS011;10516;51.518;9.864;2022-12-07T05:51:56;39.80;;;19.13;;
20709;SDS011;10516;51.518;9.864;2022-12-07T05:54:21;31.92;;;18.90;;
20709;SDS011;10516;51.518;9.864;2022-12-07T05:56:47;31.42;;;18.20;;
20709;SDS011;10516;51.518;9.864;2022-12-07T05:59:12;40.83;;;19.40;;
20709;SDS011;10516;51.518;9.864;2022-12-07T06:01:56;35.67;;;18.10;;
20709;SDS011;10516;51.518;9.864;2022-12-07T06:04:24;36.78;;;19.20;;
20709;SDS011;10516;51.518;9.864;2022-12-07T06:06:51;30.60;;;17.80;;
20709;SDS011;10516;51.518;9.864;2022-12-07T06:09:17;30.58;;;18.23;;
20709;SDS011;10516;51.518;9.864;2022-12-07T06:11:44;34.78;;;17.10;;
20709;SDS011;10516;51.518;9.864;2022-12-07T06:14:28;35.50;;;17.13;;
20709;SDS011;10516;51.518;9.864;2022-12-07T06:16:54;37.70;;;18.33;;
20709;SDS011;10516;51.518;9.864;2022-12-07T06:19:19;30.88;;;16.58;;
20709;SDS011;10516;51.518;9.864;2022-12-07T06:21:45;34.58;;;16.15;;
20709;SDS011;10516;51.518;9.864;2022-12-07T06:24:10;34.63;;;16.52;;
20709;SDS011;10516;51.518;9.864;2022-12-07T06:26:37;27.95;;;16.52;;
20709;SDS011;10516;51.518;9.864;2022-12-07T06:29:03;28.42;;;16.00;;
20709;SDS011;10516;51.518;9.864;2022-12-07T06:31:28;32.00;;;16.55;;
20709;SDS011;10516;51.518;9.864;2022-12-07T06:34:01;35.08;;;17.70;;
20709;SDS011;10516;51.518;9.864;2022-12-07T06:36:28;35.47;;;17.77;;
20709;SDS011;10516;51.518;9.864;2022-12-07T06:38:54;29.48;;;16.23;;
20709;SDS011;10516;51.518;9.864;2022-12-07T06:41:20;37.08;;;17.60;;
20709;SDS011;10516;51.518;9.864;2022-12-07T06:43:46;30.20;;;17.08;;
20709;SDS011;10516;51.518;9.864;2022-12-07T06:46:12;28.00;;;15.82;;
20709;SDS011;10516;51.518;9.864;2022-12-07T06:48:37;24.15;;;15.27;;
20709;SDS011;10516;51.518;9.864;2022-12-07T06:51:03;31.90;;;15.20;;
20709;SDS011;10516;51.518;9.864;2022-12-07T06:53:28;26.75;;;14.18;;
20709;SDS011;10516;51.518;9.864;2022-12-07T06:55:54;38.65;;;16.35;;
20709;SDS011;10516;51.518;9.864;2022-12-07T06:58:19;27.88;;;15.18;;
20709;SDS011;10516;51.518;9.864;2022-12-07T07:00:45;26.13;;;14.15;;
20709;SDS011;10516;51.518;9.864;2022-12-07T07:03:11;27.40;;;14.80;;
20709;SDS011;10516;51.518;9.864;2022-12-07T07:05:37;25.27;;;14.55;;
20709;SDS011;10516;51.518;9.864;2022-12-07T07:08:02;26.52;;;13.77;;
20709;SDS011;10516;51.518;9.864;2022-12-07T07:10:28;21.67;;;13.35;;
20709;SDS011;10516;51.518;9.864;2022-12-07T07:12:54;30.17;;;13.55;;
20709;SDS011;10516;51.518;9.864;2022-12-07T07:15:19;28.10;;;14.00;;
20709;SDS011;10516;51.518;9.864;2022-12-07T07:17:45;31.55;;;13.50;;
20709;SDS011;10516;51.518;9.864;2022-12-07T07:20:10;23.52;;;13.73;;
20709;SDS011;10516;51.518;9.864;2022-12-07T07:22:36;23.15;;;13.73;;
20709;SDS011;10516;51.518;9.864;2022-12-07T07:25:01;27.52;;;14.57;;
20709;SDS011;10516;51.518;9.864;2022-12-07T07:27:27;25.35;;;14.30;;
20709;SDS011;10516;51.518;9.864;2022-12-07T07:29:52;26.80;;;13.95;;
20709;SDS011;10516;51.518;9.864;2022-12-07T07:32:18;22.45;;;13.30;;
20709;SDS011;10516;51.518;9.864;2022-12-07T07:34:43;27.85;;;14.15;;
20709;SDS011;10516;51.518;9.864;2022-12-07T07:37:08;25.70;;;14.23;;
20709;SDS011;10516;51.518;9.864;2022-12-07T07:39:36;29.80;;;14.13;;
20709;SDS011;10516;51.518;9.864;2022-12-07T07:42:01;26.33;;;13.82;;
20709;SDS011;10516;51.518;9.864;2022-12-07T07:44:26;25.58;;;13.90;;
20709;SDS011;10516;51.518;9.864;2022-12-07T07:46:52;25.95;;;15.48;;
20709;SDS011;10516;51.518;9.864;2022-12-07T07:49:17;27.25;;;13.82;;
20709;SDS011;10516;51.518;9.864;2022-12-07T07:51:42;26.75;;;13.18;;
20709;SDS011;10516;51.518;9.864;2022-12-07T07:54:08;21.50;;;13.38;;
20709;SDS011;10516;51.518;9.864;2022-12-07T07:56:33;26.63;;;14.63;;
20709;SDS011;10516;51.518;9.864;2022-12-07T07:58:58;28.25;;;16.15;;
20709;SDS011;10516;51.518;9.864;2022-12-07T08:01:24;28.33;;;16.80;;
20709;SDS011;10516;51.518;9.864;2022-12-07T08:03:49;33.05;;;16.10;;
20709;SDS011;10516;51.518;9.864;2022-12-07T08:06:15;28.63;;;14.57;;
20709;SDS011;10516;51.518;9.864;2022-12-07T08:08:40;29.45;;;13.40;;
20709;SDS011;10516;51.518;9.864;2022-12-07T08:11:07;25.73;;;13.43;;
20709;SDS011;10516;51.518;9.864;2022-12-07T08:13:33;26.17;;;13.55;;
20709;SDS011;10516;51.518;9.864;2022-12-07T08:16:03;23.05;;;13.20;;
20709;SDS011;10516;51.518;9.864;2022-12-07T08:18:37;21.73;;;12.07;;
20709;SDS011;10516;51.518;9.864;2022-12-07T08:21:03;25.95;;;13.50;;
20709;SDS011;10516;51.518;9.864;2022-12-07T08:23:30;21.63;;;11.95;;
20709;SDS011;10516;51.518;9.864;2022-12-07T08:25:59;22.77;;;12.70;;
20709;SDS011;10516;51.518;9.864;2022-12-07T08:28:26;24.65;;;12.13;;
20709;SDS011;10516;51.518;9.864;2022-12-07T08:30:51;18.58;;;10.80;;
20709;SDS011;10516;51.518;9.864;2022-12-07T08:33:16;21.77;;;12.63;;
20709;SDS011;10516;51.518;9.864;2022-12-07T08:35:42;24.38;;;11.38;;
20709;SDS011;10516;51.518;9.864;2022-12-07T08:38:07;16.90;;;10.90;;
20709;SDS011;10516;51.518;9.864;2022-12-07T08:40:33;20.42;;;11.38;;
20709;SDS011;10516;51.518;9.864;2022-12-07T08:42:58;20.63;;;10.55;;
20709;SDS011;10516;51.518;9.864;2022-12-07T08:45:23;22.23;;;12.30;;
20709;SDS011;10516;51.518;9.864;2022-12-07T08:47:54;29.40;;;12.43;;
20709;SDS011;10516;51.518;9.864;2022-12-07T08:50:27;20.30;;;12.40;;
20709;SDS011;10516;51.518;9.864;2022-12-07T08:52:53;19.67;;;11.18;;
20709;SDS011;10516;51.518;9.864;2022-12-07T08:55:21;22.02;;;11.38;;
20709;SDS011;10516;51.518;9.864;2022-12-07T08:57:47;21.10;;;10.95;;
20709;SDS011;10516;51.518;9.864;2022-12-07T09:00:13;15.32;;;10.77;;
20709;SDS011;10516;51.518;9.864;2022-12-07T09:02:39;23.20;;;11.02;;
20709;SDS011;10516;51.518;9.864;2022-12-07T09:05:05;23.88;;;11.95;;
20709;SDS011;10516;51.518;9.864;2022-12-07T09:07:31;25.83;;;12.43;;
20709;SDS011;10516;51.518;9.864;2022-12-07T09:09:58;27.05;;;12.80;;
20709;SDS011;10516;51.518;9.864;2022-12-07T09:12:24;25.02;;;12.25;;
20709;SDS011;10516;51.518;9.864;2022-12-07T09:14:49;21.33;;;11.68;;
20709;SDS011;10516;51.518;9.864;2022-12-07T09:17:14;24.77;;;12.00;;
20709;SDS011;10516;51.518;9.864;2022-12-07T09:19:40;20.38;;;9.63;;
20709;SDS011;10516;51.518;9.864;2022-12-07T09:22:07;17.58;;;11.02;;
20709;SDS011;10516;51.518;9.864;2022-12-07T09:24:33;19.70;;;10.48;;
20709;SDS011;10516;51.518;9.864;2022-12-07T09:26:58;22.27;;;12.88;;
20709;SDS011;10516;51.518;9.864;2022-12-07T09:29:24;23.55;;;11.57;;
20709;SDS011;10516;51.518;9.864;2022-12-07T09:31:49;21.42;;;11.80;;
20709;SDS011;10516;51.518;9.864;2022-12-07T09:34:15;20.50;;;11.23;;
20709;SDS011;10516;51.518;9.864;2022-12-07T09:36:41;22.38;;;11.15;;
20709;SDS011;10516;51.518;9.864;2022-12-07T09:39:07;25.42;;;10.82;;
20709;SDS011;10516;51.518;9.864;2022-12-07T09:41:33;21.48;;;11.82;;
20709;SDS011;10516;51.518;9.864;2022-12-07T09:44:10;21.25;;;11.48;;
20709;SDS011;10516;51.518;9.864;2022-12-07T09:46:39;24.48;;;11.18;;
20709;SDS011;10516;51.518;9.864;2022-12-07T09:49:14;21.38;;;10.23;;
20709;SDS011;10516;51.518;9.864;2022-12-07T09:51:43;18.90;;;11.05;;
20709;SDS011;10516;51.518;9.864;2022-12-07T09:54:11;22.00;;;10.73;;
20709;SDS011;10516;51.518;9.864;2022-12-07T09:56:38;19.30;;;11.10;;
20709;SDS011;10516;51.518;9.864;2022-12-07T09:59:04;17.25;;;9.75;;
20709;SDS011;10516;51.518;9.864;2022-12-07T10:01:30;17.90;;;9.57;;
20709;SDS011;10516;51.518;9.864;2022-12-07T10:04:05;20.70;;;10.00;;
20709;SDS011;10516;51.518;9.864;2022-12-07T10:06:37;18.40;;;9.95;;
20709;SDS011;10516;51.518;9.864;2022-12-07T10:09:08;17.42;;;9.80;;
20709;SDS011;10516;51.518;9.864;2022-12-07T10:11:35;21.98;;;9.52;;
20709;SDS011;10516;51.518;9.864;2022-12-07T10:14:20;20.25;;;8.88;;
20709;SDS011;10516;51.518;9.864;2022-12-07T10:16:46;20.33;;;9.52;;
20709;SDS011;10516;51.518;9.864;2022-12-07T10:19:19;16.88;;;10.32;;
20709;SDS011;10516;51.518;9.864;2022-12-07T10:24:38;18.92;;;9.25;;
20709;SDS011;10516;51.518;9.864;2022-12-07T10:27:15;19.50;;;9.82;;
20709;SDS011;10516;51.518;9.864;2022-12-07T10:29:47;20.05;;;10.23;;
20709;SDS011;10516;51.518;9.864;2022-12-07T10:34:42;16.90;;;8.73;;
20709;SDS011;10516;51.518;9.864;2022-12-07T10:42:08;17.90;;;8.65;;
20709;SDS011;10516;51.518;9.864;2022-12-07T10:47:38;16.23;;;8.18;;
20709;SDS011;10516;51.518;9.864;2022-12-07T11:07:43;21.63;;;8.85;;
20709;SDS011;10516;51.518;9.864;2022-12-07T11:10:32;15.45;;;8.65;;
20709;SDS011;10516;51.518;9.864;2022-12-07T11:18:33;16.40;;;7.78;;
20709;SDS011;10516;51.518;9.864;2022-12-07T11:21:17;18.60;;;8.77;;
20709;SDS011;10516;51.518;9.864;2022-12-07T11:24:19;14.27;;;8.27;;
20709;SDS011;10516;51.518;9.864;2022-12-07T11:30:22;13.82;;;7.28;;
20709;SDS011;10516;51.518;9.864;2022-12-07T11:35:48;16.27;;;7.97;;
20709;SDS011;10516;51.518;9.864;2022-12-07T11:38:41;15.45;;;7.25;;
20709;SDS011;10516;51.518;9.864;2022-12-07T11:41:08;18.33;;;7.68;;
20709;SDS011;10516;51.518;9.864;2022-12-07T11:44:05;19.48;;;8.57;;
20709;SDS011;10516;51.518;9.864;2022-12-07T11:46:50;13.30;;;7.60;;
20709;SDS011;10516;51.518;9.864;2022-12-07T11:51:53;20.85;;;8.10;;
20709;SDS011;10516;51.518;9.864;2022-12-07T11:54:26;15.27;;;7.13;;
20709;SDS011;10516;51.518;9.864;2022-12-07T11:56:57;20.90;;;8.32;;
20709;SDS011;10516;51.518;9.864;2022-12-07T11:59:39;22.10;;;8.45;;
20709;SDS011;10516;51.518;9.864;2022-12-07T12:02:53;11.80;;;7.32;;
20709;SDS011;10516;51.518;9.864;2022-12-07T12:07:41;19.08;;;7.35;;
20709;SDS011;10516;51.518;9.864;2022-12-07T12:21:57;14.98;;;6.93;;
20709;SDS011;10516;51.518;9.864;2022-12-07T12:24:34;15.38;;;7.00;;
20709;SDS011;10516;51.518;9.864;2022-12-07T12:27:04;16.50;;;7.00;;
20709;SDS011;10516;51.518;9.864;2022-12-07T12:29:35;12.00;;;6.32;;
20709;SDS011;10516;51.518;9.864;2022-12-07T12:32:04;12.70;;;7.05;;
20709;SDS011;10516;51.518;9.864;2022-12-07T12:34:42;13.75;;;6.95;;
20709;SDS011;10516;51.518;9.864;2022-12-07T12:42:46;13.73;;;7.05;;
20709;SDS011;10516;51.518;9.864;2022-12-07T12:45:31;15.93;;;7.15;;
20709;SDS011;10516;51.518;9.864;2022-12-07T12:48:01;16.13;;;7.38;;
20709;SDS011;10516;51.518;9.864;2022-12-07T12:50:49;15.38;;;7.93;;
20709;SDS011;10516;51.518;9.864;2022-12-07T12:53:53;13.05;;;6.30;;
20709;SDS011;10516;51.518;9.864;2022-12-07T12:56:34;17.75;;;8.80;;
20709;SDS011;10516;51.518;9.864;2022-12-07T13:01:47;18.23;;;8.65;;
20709;SDS011;10516;51.518;9.864;2022-12-07T13:04:21;14.55;;;7.85;;
20709;SDS011;10516;51.518;9.864;2022-12-07T13:06:50;15.07;;;7.05;;
20709;SDS011;10516;51.518;9.864;2022-12-07T13:09:27;18.05;;;7.22;;
20709;SDS011;10516;51.518;9.864;2022-12-07T13:11:58;17.95;;;8.05;;
20709;SDS011;10516;51.518;9.864;2022-12-07T13:20:01;17.42;;;7.07;;
20709;SDS011;10516;51.518;9.864;2022-12-07T13:27:51;13.83;;;6.80;;
20709;SDS011;10516;51.518;9.864;2022-12-07T13:30:22;15.75;;;6.97;;
20709;SDS011;10516;51.518;9.864;2022-12-07T13:32:55;10.63;;;7.13;;
20709;SDS011;10516;51.518;9.864;2022-12-07T13:37:56;11.75;;;6.65;;
20709;SDS011;10516;51.518;9.864;2022-12-07T13:40:21;11.88;;;7.55;;
20709;SDS011;10516;51.518;9.864;2022-12-07T13:42:48;12.07;;;7.00;;
20709;SDS011;10516;51.518;9.864;2022-12-07T13:45:24;11.90;;;7.07;;
20709;SDS011;10516;51.518;9.864;2022-12-07T13:48:32;15.15;;;7.40;;
20709;SDS011;10516;51.518;9.864;2022-12-07T13:51:02;12.98;;;7.60;;
20709;SDS011;10516;51.518;9.864;2022-12-07T13:53:29;14.50;;;7.15;;
20709;SDS011;10516;51.518;9.864;2022-12-07T13:55:58;13.55;;;8.35;;
20709;SDS011;10516;51.518;9.864;2022-12-07T13:58:25;11.20;;;7.60;;
20709;SDS011;10516;51.518;9.864;2022-12-07T14:00:54;17.15;;;7.57;;
20709;SDS011;10516;51.518;9.864;2022-12-07T14:06:04;11.35;;;7.20;;
20709;SDS011;10516;51.518;9.864;2022-12-07T14:08:30;15.15;;;7.72;;
20709;SDS011;10516;51.518;9.864;2022-12-07T14:10:56;14.57;;;7.43;;
20709;SDS011;10516;51.518;9.864;2022-12-07T14:13:36;10.73;;;7.65;;
20709;SDS011;10516;51.518;9.864;2022-12-07T14:16:54;14.40;;;7.68;;
20709;SDS011;10516;51.518;9.864;2022-12-07T14:19:01;12.55;;;7.53;;
20709;SDS011;10516;51.518;9.864;2022-12-07T14:21:30;14.50;;;7.72;;
20709;SDS011;10516;51.518;9.864;2022-12-07T14:26:44;12.88;;;7.68;;
20709;SDS011;10516;51.518;9.864;2022-12-07T14:31:52;14.25;;;8.70;;
20709;SDS011;10516;51.518;9.864;2022-12-07T14:34:21;9.88;;;6.80;;
20709;SDS011;10516;51.518;9.864;2022-12-07T14:36:47;18.73;;;7.20;;
20709;SDS011;10516;51.518;9.864;2022-12-07T14:39:13;19.38;;;8.70;;
20709;SDS011;10516;51.518;9.864;2022-12-07T14:41:38;18.90;;;8.40;;
20709;SDS011;10516;51.518;9.864;2022-12-07T14:44:16;12.57;;;7.63;;
20709;SDS011;10516;51.518;9.864;2022-12-07T14:46:43;12.48;;;7.78;;
20709;SDS011;10516;51.518;9.864;2022-12-07T14:49:08;10.48;;;7.50;;
20709;SDS011;10516;51.518;9.864;2022-12-07T14:51:33;12.45;;;8.27;;
20709;SDS011;10516;51.518;9.864;2022-12-07T14:54:04;14.18;;;8.00;;
20709;SDS011;10516;51.518;9.864;2022-12-07T14:56:31;11.25;;;7.35;;
20709;SDS011;10516;51.518;9.864;2022-12-07T14:58:56;12.27;;;8.20;;
20709;SDS011;10516;51.518;9.864;2022-12-07T15:01:22;20.35;;;8.70;;
20709;SDS011;10516;51.518;9.864;2022-12-07T15:03:47;13.02;;;7.10;;
20709;SDS011;10516;51.518;9.864;2022-12-07T15:06:14;13.63;;;7.95;;
20709;SDS011;10516;51.518;9.864;2022-12-07T15:08:41;19.05;;;7.85;;
20709;SDS011;10516;51.518;9.864;2022-12-07T15:11:09;15.40;;;7.78;;
20709;SDS011;10516;51.518;9.864;2022-12-07T15:13:37;18.63;;;8.07;;
20709;SDS011;10516;51.518;9.864;2022-12-07T15:16:21;22.48;;;9.77;;
20709;SDS011;10516;51.518;9.864;2022-12-07T15:18:46;27.08;;;10.13;;
20709;SDS011;10516;51.518;9.864;2022-12-07T15:21:15;17.92;;;9.57;;
20709;SDS011;10516;51.518;9.864;2022-12-07T15:23:41;43.75;;;19.08;;
20709;SDS011;10516;51.518;9.864;2022-12-07T15:26:07;15.15;;;10.48;;
20709;SDS011;10516;51.518;9.864;2022-12-07T15:28:34;25.75;;;12.00;;
20709;SDS011;10516;51.518;9.864;2022-12-07T15:31:02;24.88;;;12.30;;
20709;SDS011;10516;51.518;9.864;2022-12-07T15:33:28;28.65;;;14.63;;
20709;SDS011;10516;51.518;9.864;2022-12-07T15:35:53;27.50;;;13.38;;
20709;SDS011;10516;51.518;9.864;2022-12-07T15:38:19;35.20;;;15.57;;
20709;SDS011;10516;51.518;9.864;2022-12-07T15:40:48;32.13;;;15.90;;
20709;SDS011;10516;51.518;9.864;2022-12-07T15:43:13;29.55;;;16.58;;
20709;SDS011;10516;51.518;9.864;2022-12-07T15:45:57;28.90;;;15.65;;
20709;SDS011;10516;51.518;9.864;2022-12-07T15:48:24;27.77;;;14.05;;
20709;SDS011;10516;51.518;9.864;2022-12-07T15:50:50;28.05;;;13.07;;
20709;SDS011;10516;51.518;9.864;2022-12-07T15:53:15;24.60;;;11.88;;
20709;SDS011;10516;51.518;9.864;2022-12-07T15:55:41;23.13;;;12.07;;
20709;SDS011;10516;51.518;9.864;2022-12-07T15:58:06;26.85;;;12.82;;
20709;SDS011;10516;51.518;9.864;2022-12-07T16:00:32;24.40;;;11.38;;
20709;SDS011;10516;51.518;9.864;2022-12-07T16:02:58;20.35;;;11.55;;
20709;SDS011;10516;51.518;9.864;2022-12-07T16:05:23;22.67;;;12.77;;
20709;SDS011;10516;51.518;9.864;2022-12-07T16:07:49;34.50;;;19.67;;
20709;SDS011;10516;51.518;9.864;2022-12-07T16:10:14;37.40;;;16.13;;
20709;SDS011;10516;51.518;9.864;2022-12-07T16:12:40;26.48;;;15.75;;
20709;SDS011;10516;51.518;9.864;2022-12-07T16:15:05;23.10;;;13.55;;
20709;SDS011;10516;51.518;9.864;2022-12-07T16:17:31;32.75;;;14.60;;
20709;SDS011;10516;51.518;9.864;2022-12-07T16:19:57;25.85;;;12.23;;
20709;SDS011;10516;51.518;9.864;2022-12-07T16:22:23;16.67;;;11.63;;
20709;SDS011;10516;51.518;9.864;2022-12-07T16:24:48;23.17;;;12.50;;
20709;SDS011;10516;51.518;9.864;2022-12-07T16:27:14;20.35;;;11.85;;
20709;SDS011;10516;51.518;9.864;2022-12-07T16:29:39;28.38;;;11.80;;
20709;SDS011;10516;51.518;9.864;2022-12-07T16:32:05;18.55;;;11.82;;
20709;SDS011;10516;51.518;9.864;2022-12-07T16:34:32;20.80;;;11.48;;